createdAt,value
2018-06-11T00:00:58.078Z,24.40
2018-06-11T00:02:03.589Z,23.40
2018-06-11T00:03:09.108Z,24.80
2018-06-11T00:04:14.625Z,24.80
2018-06-11T00:05:20.143Z,25.20
2018-06-11T00:06:25.664Z,24.60
2018-06-11T00:07:31.185Z,24.60
2018-06-11T00:08:36.700Z,24.60
2018-06-11T00:09:42.208Z,24.10
2018-06-11T00:10:47.752Z,24.70
2018-06-11T00:11:53.287Z,24.60
2018-06-11T00:12:58.763Z,25.00
2018-06-11T00:14:04.288Z,23.90
2018-06-11T00:15:09.802Z,24.60
2018-06-11T00:16:15.315Z,25.20
2018-06-11T00:17:20.840Z,25.10
2018-06-11T00:18:26.348Z,25.10
2018-06-11T00:19:31.870Z,24.90
2018-06-11T00:20:37.396Z,24.70
2018-06-11T00:21:42.908Z,24.50
2018-06-11T00:22:48.424Z,25.50
2018-06-11T00:23:53.932Z,24.40
2018-06-11T00:24:59.457Z,24.60
2018-06-11T00:26:04.989Z,25.10
2018-06-11T00:27:10.487Z,23.80
2018-06-11T00:28:16.006Z,24.30
2018-06-11T00:29:21.531Z,25.20
2018-06-11T00:30:27.034Z,23.80
2018-06-11T00:31:32.561Z,24.30
2018-06-11T00:32:38.073Z,24.70
2018-06-11T00:33:43.593Z,24.80
2018-06-11T00:34:49.104Z,24.30
2018-06-11T00:35:54.624Z,23.30
2018-06-11T00:37:00.145Z,24.00
2018-06-11T00:38:05.661Z,25.50
2018-06-11T00:39:11.168Z,25.00
2018-06-11T00:40:16.685Z,24.30
2018-06-11T00:41:22.207Z,24.40
2018-06-11T00:42:27.722Z,24.70
2018-06-11T00:43:33.243Z,24.70
2018-06-11T00:44:38.755Z,24.70
2018-06-11T00:45:44.285Z,24.00
2018-06-11T00:46:49.794Z,24.10
2018-06-11T00:47:55.308Z,25.30
2018-06-11T00:49:00.825Z,25.00
2018-06-11T00:50:06.344Z,24.90
2018-06-11T00:51:11.864Z,25.50
2018-06-11T00:52:17.375Z,24.70
2018-06-11T00:53:22.894Z,24.90
2018-06-11T00:54:28.423Z,24.90
2018-06-11T00:55:33.925Z,26.10
2018-06-11T00:56:39.450Z,25.30
2018-06-11T00:57:44.959Z,25.00
2018-06-11T00:58:50.487Z,25.50
2018-06-11T00:59:55.994Z,25.30
2018-06-11T01:01:01.530Z,25.90
2018-06-11T01:02:07.050Z,24.80
2018-06-11T01:03:12.556Z,24.70
2018-06-11T01:04:18.067Z,25.00
2018-06-11T01:05:23.577Z,25.30
2018-06-11T01:06:29.096Z,23.80
2018-06-11T01:07:34.630Z,24.00
2018-06-11T01:08:40.134Z,24.80
2018-06-11T01:09:45.644Z,23.20
2018-06-11T01:10:51.164Z,23.50
2018-06-11T01:11:56.683Z,23.00
2018-06-11T01:13:02.199Z,23.80
2018-06-11T01:14:07.715Z,22.80
2018-06-11T01:15:13.229Z,23.50
2018-06-11T01:16:18.745Z,23.30
2018-06-11T01:17:24.263Z,23.60
2018-06-11T01:18:29.784Z,22.50
2018-06-11T01:19:35.301Z,23.10
2018-06-11T01:20:40.815Z,23.00
2018-06-11T01:21:46.327Z,22.20
2018-06-11T01:22:51.855Z,22.60
2018-06-11T01:23:57.372Z,22.80
2018-06-11T01:25:02.879Z,23.00
2018-06-11T01:26:08.396Z,22.80
2018-06-11T01:27:13.920Z,22.30
2018-06-11T01:28:19.436Z,23.20
2018-06-11T01:29:24.945Z,21.70
2018-06-11T01:30:30.469Z,23.10
2018-06-11T01:31:35.976Z,22.40
2018-06-11T01:32:41.505Z,21.60
2018-06-11T01:33:47.018Z,21.70
2018-06-11T01:34:52.531Z,21.70
2018-06-11T01:35:58.046Z,22.10
2018-06-11T01:37:03.564Z,22.10
2018-06-11T01:38:09.079Z,21.60
2018-06-11T01:39:14.598Z,22.10
2018-06-11T01:40:20.115Z,21.70
2018-06-11T01:41:25.633Z,21.30
2018-06-11T01:42:31.140Z,22.20
2018-06-11T01:43:36.656Z,21.50
2018-06-11T01:44:42.180Z,21.40
2018-06-11T01:45:47.695Z,21.00
2018-06-11T01:46:53.211Z,21.40
2018-06-11T01:47:58.724Z,21.60
2018-06-11T01:49:04.242Z,20.30
2018-06-11T01:50:09.767Z,22.00
2018-06-11T01:51:15.280Z,20.70
2018-06-11T01:52:20.792Z,21.30
2018-06-11T01:53:26.315Z,21.60
2018-06-11T01:54:31.825Z,20.90
2018-06-11T01:55:37.346Z,20.90
2018-06-11T01:56:42.860Z,21.90
2018-06-11T01:57:48.373Z,21.50
2018-06-11T01:58:53.891Z,21.20
2018-06-11T01:59:59.412Z,20.70
2018-06-11T02:01:04.920Z,21.80
2018-06-11T02:02:10.444Z,21.90
2018-06-11T02:03:15.954Z,21.40
2018-06-11T02:04:21.476Z,21.40
2018-06-11T02:05:26.989Z,22.00
2018-06-11T02:06:32.501Z,22.30
2018-06-11T02:07:38.025Z,21.60
2018-06-11T02:08:43.547Z,22.30
2018-06-11T02:09:49.055Z,21.20
2018-06-11T02:10:54.658Z,21.80
2018-06-11T02:12:00.087Z,21.30
2018-06-11T02:13:05.602Z,21.70
2018-06-11T02:14:11.116Z,22.60
2018-06-11T02:15:16.637Z,21.70
2018-06-11T02:16:22.145Z,21.50
2018-06-11T02:17:27.665Z,22.50
2018-06-11T02:18:33.186Z,21.30
2018-06-11T02:19:38.702Z,21.30
2018-06-11T02:20:44.217Z,22.60
2018-06-11T02:21:49.762Z,22.00
2018-06-11T02:22:55.250Z,22.50
2018-06-11T02:24:00.760Z,22.10
2018-06-11T02:25:06.283Z,22.40
2018-06-11T02:26:11.797Z,22.70
2018-06-11T02:27:17.309Z,22.50
2018-06-11T02:28:22.828Z,21.70
2018-06-11T02:29:28.342Z,22.20
2018-06-11T02:30:33.866Z,22.30
2018-06-11T02:31:39.375Z,23.00
2018-06-11T02:32:44.899Z,21.60
2018-06-11T02:33:50.405Z,22.20
2018-06-11T02:34:55.932Z,22.50
2018-06-11T02:36:01.439Z,22.30
2018-06-11T02:37:06.953Z,22.90
2018-06-11T02:38:12.476Z,22.10
2018-06-11T02:39:17.986Z,21.20
2018-06-11T02:40:23.501Z,22.30
2018-06-11T02:41:29.020Z,22.10
2018-06-11T02:42:34.537Z,22.20
2018-06-11T02:43:40.055Z,21.10
2018-06-11T02:44:45.565Z,21.60
2018-06-11T02:45:51.097Z,21.30
2018-06-11T02:46:56.700Z,21.30
2018-06-11T02:48:02.159Z,21.10
2018-06-11T02:49:07.675Z,22.00
2018-06-11T02:50:13.151Z,20.80
2018-06-11T02:51:18.668Z,21.10
2018-06-11T02:52:24.187Z,21.10
2018-06-11T02:53:29.717Z,21.20
2018-06-11T02:54:35.215Z,21.10
2018-06-11T02:55:40.737Z,21.60
2018-06-11T02:56:46.248Z,21.30
2018-06-11T02:57:51.773Z,20.70
2018-06-11T02:58:57.291Z,20.90
2018-06-11T03:00:02.804Z,21.30
2018-06-11T03:01:08.311Z,21.30
2018-06-11T03:02:13.827Z,20.80
2018-06-11T03:03:19.340Z,21.30
2018-06-11T03:04:24.860Z,21.90
2018-06-11T03:05:30.383Z,21.30
2018-06-11T03:06:35.897Z,20.90
2018-06-11T03:07:41.407Z,20.70
2018-06-11T03:08:46.928Z,21.00
2018-06-11T03:09:52.443Z,21.00
2018-06-11T03:10:57.956Z,21.40
2018-06-11T03:12:03.476Z,20.70
2018-06-11T03:13:08.986Z,21.30
2018-06-11T03:14:14.514Z,20.50
2018-06-11T03:15:20.022Z,21.00
2018-06-11T03:16:25.549Z,20.90
2018-06-11T03:17:31.054Z,20.40
2018-06-11T03:18:36.577Z,20.70
2018-06-11T03:19:42.083Z,20.30
2018-06-11T03:20:47.603Z,21.10
2018-06-11T03:21:53.196Z,20.50
2018-06-11T03:22:58.638Z,21.30
2018-06-11T03:24:04.253Z,20.60
2018-06-11T03:25:09.663Z,20.00
2018-06-11T03:26:15.186Z,20.80
2018-06-11T03:27:20.727Z,20.30
2018-06-11T03:28:26.216Z,20.40
2018-06-11T03:29:31.735Z,21.30
2018-06-11T03:30:37.246Z,20.80
2018-06-11T03:31:42.759Z,20.70
2018-06-11T03:32:48.279Z,20.60
2018-06-11T03:33:53.800Z,19.80
2018-06-11T03:34:59.310Z,20.90
2018-06-11T03:36:04.831Z,20.90
2018-06-11T03:37:10.344Z,21.50
2018-06-11T03:38:15.857Z,20.80
2018-06-11T03:39:21.380Z,20.90
2018-06-11T03:40:26.898Z,21.00
2018-06-11T03:41:32.405Z,21.70
2018-06-11T03:42:37.921Z,21.20
2018-06-11T03:43:43.434Z,21.10
2018-06-11T03:44:48.955Z,20.90
2018-06-11T03:45:54.471Z,21.10
2018-06-11T03:46:59.988Z,20.90
2018-06-11T03:48:05.507Z,20.60
2018-06-11T03:49:11.016Z,21.20
2018-06-11T03:50:16.539Z,21.20
2018-06-11T03:51:22.057Z,21.00
2018-06-11T03:52:27.567Z,20.80
2018-06-11T03:53:33.086Z,21.00
2018-06-11T03:54:38.596Z,21.00
2018-06-11T03:55:44.162Z,20.50
2018-06-11T03:56:49.630Z,21.10
2018-06-11T03:57:55.149Z,20.90
2018-06-11T03:59:00.671Z,20.10
2018-06-11T04:00:06.182Z,21.90
2018-06-11T04:01:11.703Z,22.20
2018-06-11T04:02:17.311Z,21.40
2018-06-11T04:03:22.729Z,21.40
2018-06-11T04:04:28.241Z,21.60
2018-06-11T04:05:33.760Z,20.80
2018-06-11T04:06:39.289Z,21.70
2018-06-11T04:07:44.797Z,22.10
2018-06-11T04:08:50.309Z,21.40
2018-06-11T04:09:55.828Z,21.90
2018-06-11T04:11:01.444Z,22.60
2018-06-11T04:12:06.856Z,21.80
2018-06-11T04:13:12.376Z,22.20
2018-06-11T04:14:17.898Z,22.10
2018-06-11T04:15:23.409Z,21.80
2018-06-11T04:16:28.927Z,22.10
2018-06-11T04:17:34.446Z,21.80
2018-06-11T04:18:39.956Z,21.30
2018-06-11T04:19:45.477Z,21.90
2018-06-11T04:20:50.993Z,21.90
2018-06-11T04:21:56.511Z,22.20
2018-06-11T04:23:02.021Z,22.60
2018-06-11T04:24:07.537Z,22.00
2018-06-11T04:25:13.061Z,22.20
2018-06-11T04:26:18.573Z,22.00
2018-06-11T04:27:24.088Z,22.30
2018-06-11T04:28:29.603Z,22.60
2018-06-11T04:29:35.126Z,21.20
2018-06-11T04:30:40.670Z,21.50
2018-06-11T04:31:46.149Z,21.50
2018-06-11T04:32:51.673Z,21.20
2018-06-11T04:33:57.278Z,21.50
2018-06-11T04:35:02.708Z,21.10
2018-06-11T04:36:08.227Z,21.20
2018-06-11T04:37:13.743Z,21.40
2018-06-11T04:38:19.252Z,20.00
2018-06-11T04:39:24.808Z,20.40
2018-06-11T04:40:30.282Z,20.00
2018-06-11T04:41:35.800Z,20.80
2018-06-11T04:42:41.316Z,21.30
2018-06-11T04:43:46.829Z,20.60
2018-06-11T04:44:52.345Z,20.80
2018-06-11T04:45:57.868Z,20.20
2018-06-11T04:47:03.385Z,20.50
2018-06-11T04:48:08.894Z,21.30
2018-06-11T04:49:14.411Z,22.00
2018-06-11T04:50:19.925Z,20.80
2018-06-11T04:51:25.440Z,21.40
2018-06-11T04:52:30.968Z,21.20
2018-06-11T04:53:36.480Z,20.10
2018-06-11T04:54:42.006Z,21.10
2018-06-11T04:55:47.513Z,20.70
2018-06-11T04:56:53.024Z,20.70
2018-06-11T04:57:58.543Z,20.30
2018-06-11T04:59:04.064Z,20.40
2018-06-11T05:00:09.575Z,19.40
2018-06-11T05:01:15.091Z,20.50
2018-06-11T05:02:20.609Z,20.70
2018-06-11T05:03:26.124Z,19.40
2018-06-11T05:04:31.636Z,19.90
2018-06-11T05:05:37.152Z,19.10
2018-06-11T05:06:42.687Z,18.90
2018-06-11T05:07:48.186Z,19.10
2018-06-11T05:08:53.717Z,19.30
2018-06-11T05:09:59.273Z,19.30
2018-06-11T05:11:04.743Z,19.40
2018-06-11T05:12:10.255Z,19.50
2018-06-11T05:13:15.780Z,19.10
2018-06-11T05:14:21.300Z,19.00
2018-06-11T05:15:26.812Z,19.40
2018-06-11T05:16:32.316Z,19.40
2018-06-11T05:17:37.845Z,19.20
2018-06-11T05:18:43.356Z,18.90
2018-06-11T05:19:48.870Z,18.70
2018-06-11T05:20:54.384Z,18.30
2018-06-11T05:21:59.908Z,18.60
2018-06-11T05:23:05.419Z,18.40
2018-06-11T05:24:10.928Z,18.70
2018-06-11T05:25:16.448Z,17.90
2018-06-11T05:26:21.962Z,18.60
2018-06-11T05:27:27.504Z,18.60
2018-06-11T05:28:32.995Z,18.10
2018-06-11T05:29:38.516Z,18.60
2018-06-11T05:30:44.037Z,18.50
2018-06-11T05:31:49.544Z,19.30
2018-06-11T05:32:55.070Z,18.20
2018-06-11T05:34:00.595Z,18.40
2018-06-11T05:35:06.091Z,18.80
2018-06-11T05:36:11.619Z,18.80
2018-06-11T05:37:17.130Z,18.20
2018-06-11T05:38:22.643Z,18.20
2018-06-11T05:39:28.157Z,18.50
2018-06-11T05:40:33.717Z,18.60
2018-06-11T05:41:39.196Z,17.90
2018-06-11T05:42:44.716Z,18.20
2018-06-11T05:43:50.227Z,17.70
2018-06-11T05:44:55.743Z,18.90
2018-06-11T05:46:01.256Z,20.30
2018-06-11T05:47:06.782Z,19.80
2018-06-11T05:48:12.292Z,20.30
2018-06-11T05:49:17.812Z,20.10
2018-06-11T05:50:23.372Z,20.30
2018-06-11T05:51:28.840Z,20.30
2018-06-11T05:52:34.355Z,20.20
2018-06-11T05:53:39.883Z,19.80
2018-06-11T05:54:45.402Z,20.90
2018-06-11T05:55:50.904Z,19.60
2018-06-11T05:56:56.425Z,20.30
2018-06-11T05:58:01.942Z,20.40
2018-06-11T05:59:07.456Z,19.70
2018-06-11T06:00:12.978Z,20.00
2018-06-11T06:01:18.512Z,21.00
2018-06-11T06:02:23.999Z,21.40
2018-06-11T06:03:29.517Z,20.80
2018-06-11T06:04:35.036Z,21.90
2018-06-11T06:05:40.555Z,20.90
2018-06-11T06:06:46.069Z,21.00
2018-06-11T06:07:51.586Z,20.40
2018-06-11T06:08:57.101Z,21.70
2018-06-11T06:10:02.618Z,20.90
2018-06-11T06:11:08.134Z,21.40
2018-06-11T06:12:13.654Z,21.90
2018-06-11T06:13:19.169Z,22.10
2018-06-11T06:14:24.690Z,21.10
2018-06-11T06:15:30.208Z,21.20
2018-06-11T06:16:35.720Z,20.00
2018-06-11T06:17:41.235Z,20.10
2018-06-11T06:18:46.750Z,20.50
2018-06-11T06:19:52.281Z,19.20
2018-06-11T06:20:57.781Z,20.30
2018-06-11T06:22:03.306Z,19.70
2018-06-11T06:23:08.812Z,19.60
2018-06-11T06:24:14.331Z,18.90
2018-06-11T06:25:19.854Z,19.70
2018-06-11T06:26:25.365Z,19.80
2018-06-11T06:27:30.880Z,19.40
2018-06-11T06:28:36.398Z,19.90
2018-06-11T06:29:41.916Z,19.80
2018-06-11T06:30:47.445Z,19.70
2018-06-11T06:31:52.947Z,19.30
2018-06-11T06:32:58.465Z,19.30
2018-06-11T06:34:04.020Z,20.30
2018-06-11T06:35:09.496Z,18.30
2018-06-11T06:36:15.014Z,18.20
2018-06-11T06:37:20.528Z,18.30
2018-06-11T06:38:26.046Z,18.80
2018-06-11T06:39:31.565Z,19.10
2018-06-11T06:40:37.088Z,19.20
2018-06-11T06:41:42.597Z,19.50
2018-06-11T06:42:48.110Z,19.00
2018-06-11T06:43:53.627Z,18.60
2018-06-11T06:44:59.145Z,18.30
2018-06-11T06:46:04.661Z,18.00
2018-06-11T06:47:10.180Z,18.80
2018-06-11T06:48:15.695Z,18.80
2018-06-11T06:49:21.211Z,18.60
2018-06-11T06:50:26.728Z,19.20
2018-06-11T06:51:32.244Z,19.40
2018-06-11T06:52:37.762Z,19.40
2018-06-11T06:53:43.298Z,18.30
2018-06-11T06:54:48.801Z,19.60
2018-06-11T06:55:54.308Z,19.20
2018-06-11T06:56:59.826Z,19.90
2018-06-11T06:58:05.348Z,19.90
2018-06-11T06:59:10.861Z,19.30
2018-06-11T07:00:16.376Z,19.80
2018-06-11T07:01:21.895Z,20.20
2018-06-11T07:02:27.410Z,20.80
2018-06-11T07:03:32.951Z,20.30
2018-06-11T07:04:38.447Z,22.20
2018-06-11T07:05:43.960Z,20.70
2018-06-11T07:06:49.488Z,22.00
2018-06-11T07:07:54.995Z,23.80
2018-06-11T07:09:00.513Z,23.30
2018-06-11T07:10:06.033Z,23.50
2018-06-11T07:11:11.546Z,23.30
2018-06-11T07:12:17.058Z,21.30
2018-06-11T07:13:22.575Z,21.60
2018-06-11T07:14:28.091Z,22.00
2018-06-11T07:15:33.616Z,21.90
2018-06-11T07:16:39.125Z,20.70
2018-06-11T07:17:44.643Z,21.60
2018-06-11T07:18:50.166Z,21.70
2018-06-11T07:19:55.676Z,21.30
2018-06-11T07:21:01.195Z,21.00
2018-06-11T07:22:06.721Z,22.20
2018-06-11T07:23:12.224Z,23.30
2018-06-11T07:24:17.749Z,22.10
2018-06-11T07:25:23.264Z,22.60
2018-06-11T07:26:28.775Z,22.80
2018-06-11T07:27:34.295Z,21.30
2018-06-11T07:28:39.817Z,20.90
2018-06-11T07:29:45.327Z,20.90
2018-06-11T07:30:50.847Z,20.80
2018-06-11T07:31:56.360Z,20.90
2018-06-11T07:33:01.883Z,20.50
2018-06-11T07:34:07.396Z,20.90
2018-06-11T07:35:12.916Z,20.80
2018-06-11T07:36:18.434Z,21.60
2018-06-11T07:37:23.954Z,22.10
2018-06-11T07:38:29.474Z,21.50
2018-06-11T07:39:34.980Z,22.00
2018-06-11T07:40:40.504Z,23.90
2018-06-11T07:41:46.014Z,24.40
2018-06-11T07:42:51.529Z,23.80
2018-06-11T07:43:57.046Z,23.60
2018-06-11T07:45:02.577Z,23.90
2018-06-11T07:46:08.086Z,23.50
2018-06-11T07:47:13.597Z,22.30
2018-06-11T07:48:19.121Z,22.80
2018-06-11T07:49:24.635Z,23.10
2018-06-11T07:50:30.148Z,22.40
2018-06-11T07:51:35.712Z,23.40
2018-06-11T07:52:41.188Z,23.60
2018-06-11T07:53:46.713Z,23.60
2018-06-11T07:54:52.226Z,23.70
2018-06-11T07:55:57.745Z,23.80
2018-06-11T07:57:03.256Z,23.40
2018-06-11T07:58:08.769Z,23.40
2018-06-11T07:59:14.289Z,22.70
2018-06-11T08:00:19.804Z,23.60
2018-06-11T08:01:25.328Z,23.70
2018-06-11T08:02:30.840Z,24.00
2018-06-11T08:03:36.370Z,23.40
2018-06-11T08:04:41.877Z,23.50
2018-06-11T08:05:47.403Z,23.50
2018-06-11T08:06:52.908Z,23.10
2018-06-11T08:07:58.427Z,23.10
2018-06-11T08:09:03.963Z,22.30
2018-06-11T08:10:09.468Z,22.70
2018-06-11T08:11:14.976Z,23.20
2018-06-11T08:12:20.493Z,24.00
2018-06-11T08:13:26.066Z,24.20
2018-06-11T08:14:31.528Z,23.60
2018-06-11T08:15:37.082Z,24.00
2018-06-11T08:16:42.577Z,24.30
2018-06-11T08:17:48.079Z,23.30
2018-06-11T08:18:53.598Z,24.30
2018-06-11T08:19:59.113Z,23.60
2018-06-11T08:21:04.640Z,24.00
2018-06-11T08:22:10.150Z,24.40
2018-06-11T08:23:15.674Z,23.90
2018-06-11T08:24:21.188Z,24.60
2018-06-11T08:25:26.713Z,24.60
2018-06-11T08:26:32.225Z,24.00
2018-06-11T08:27:37.735Z,23.60
2018-06-11T08:28:43.269Z,24.30
2018-06-11T08:29:48.770Z,24.50
2018-06-11T08:30:54.298Z,23.60
2018-06-11T08:31:59.824Z,23.90
2018-06-11T08:33:05.322Z,24.00
2018-06-11T08:34:10.845Z,23.90
2018-06-11T08:35:16.360Z,23.80
2018-06-11T08:36:21.876Z,23.00
2018-06-11T08:37:27.448Z,23.20
2018-06-11T08:38:32.916Z,24.30
2018-06-11T08:39:38.428Z,22.90
2018-06-11T08:40:43.964Z,23.00
2018-06-11T08:41:49.464Z,22.80
2018-06-11T08:42:54.979Z,23.40
2018-06-11T08:44:00.507Z,23.10
2018-06-11T08:45:06.020Z,24.30
2018-06-11T08:46:11.544Z,22.70
2018-06-11T08:47:17.069Z,22.70
2018-06-11T08:48:22.573Z,23.90
2018-06-11T08:49:28.087Z,22.50
2018-06-11T08:50:33.611Z,22.90
2018-06-11T08:51:39.132Z,23.70
2018-06-11T08:52:44.640Z,24.00
2018-06-11T08:53:50.159Z,23.60
2018-06-11T08:54:55.693Z,24.40
2018-06-11T08:56:01.195Z,25.90
2018-06-11T08:57:06.713Z,24.90
2018-06-11T08:58:12.231Z,25.10
2018-06-11T08:59:17.756Z,25.10
2018-06-11T09:00:23.267Z,24.60
2018-06-11T09:01:28.785Z,23.70
2018-06-11T09:02:34.300Z,26.10
2018-06-11T09:03:39.823Z,25.40
2018-06-11T09:04:45.348Z,25.10
2018-06-11T09:05:50.855Z,24.60
2018-06-11T09:06:56.374Z,25.10
2018-06-11T09:08:01.895Z,25.20
2018-06-11T09:09:07.412Z,25.80
2018-06-11T09:10:12.932Z,26.50
2018-06-11T09:11:18.452Z,25.80
2018-06-11T09:12:23.965Z,24.90
2018-06-11T09:13:29.485Z,26.60
2018-06-11T09:14:35.002Z,26.20
2018-06-11T09:15:40.524Z,26.30
2018-06-11T09:16:46.043Z,27.20
2018-06-11T09:17:51.607Z,26.40
2018-06-11T09:18:57.092Z,28.10
2018-06-11T09:20:02.593Z,26.80
2018-06-11T09:21:08.229Z,26.80
2018-06-11T09:22:13.626Z,28.10
2018-06-11T09:23:19.145Z,26.60
2018-06-11T09:24:24.674Z,28.00
2018-06-11T09:25:30.182Z,26.40
2018-06-11T09:26:35.700Z,28.60
2018-06-11T09:27:41.216Z,28.80
2018-06-11T09:28:46.735Z,29.10
2018-06-11T09:29:52.261Z,28.50
2018-06-11T09:30:57.787Z,28.10
2018-06-11T09:32:03.504Z,28.50
2018-06-11T09:33:08.820Z,28.40
2018-06-11T09:34:14.324Z,27.80
2018-06-11T09:35:19.846Z,27.80
2018-06-11T09:36:25.393Z,29.10
2018-06-11T09:37:30.878Z,28.90
2018-06-11T09:38:36.400Z,30.00
2018-06-11T09:39:41.916Z,30.00
2018-06-11T09:40:47.445Z,31.30
2018-06-11T09:41:52.962Z,31.90
2018-06-11T09:42:58.483Z,33.20
2018-06-11T09:44:04.160Z,32.60
2018-06-11T09:45:09.504Z,31.90
2018-06-11T09:46:15.030Z,32.10
2018-06-11T09:47:20.545Z,32.40
2018-06-11T09:48:26.067Z,32.60
2018-06-11T09:49:31.578Z,32.90
2018-06-11T09:50:37.097Z,34.20
2018-06-11T09:51:42.623Z,33.00
2018-06-11T09:52:48.145Z,34.60
2018-06-11T09:53:53.659Z,34.20
2018-06-11T09:54:59.177Z,35.00
2018-06-11T09:56:04.696Z,35.60
2018-06-11T09:57:10.213Z,34.30
2018-06-11T09:58:15.728Z,35.30
2018-06-11T09:59:21.248Z,35.00
2018-06-11T10:00:26.771Z,36.60
2018-06-11T10:01:32.291Z,35.40
2018-06-11T10:02:37.804Z,35.50
2018-06-11T10:03:43.377Z,36.90
2018-06-11T10:04:48.841Z,35.40
2018-06-11T10:05:54.366Z,35.40
2018-06-11T10:06:59.880Z,36.60
2018-06-11T10:08:05.413Z,36.20
2018-06-11T10:09:10.983Z,34.90
2018-06-11T10:10:16.432Z,35.50
2018-06-11T10:11:21.953Z,35.10
2018-06-11T10:12:27.478Z,34.80
2018-06-11T10:13:33.009Z,34.80
2018-06-11T10:14:38.515Z,31.70
2018-06-11T10:15:44.037Z,32.40
2018-06-11T10:16:49.547Z,32.90
2018-06-11T10:17:55.064Z,33.10
2018-06-11T10:19:00.593Z,33.40
2018-06-11T10:20:06.100Z,32.50
2018-06-11T10:21:11.627Z,32.30
2018-06-11T10:22:17.147Z,32.20
2018-06-11T10:23:22.660Z,33.00
2018-06-11T10:24:28.198Z,31.90
2018-06-11T10:25:33.695Z,30.90
2018-06-11T10:26:39.215Z,30.60
2018-06-11T10:27:44.740Z,30.40
2018-06-11T10:28:50.256Z,28.50
2018-06-11T10:29:55.775Z,28.80
2018-06-11T10:31:01.295Z,29.50
2018-06-11T10:32:06.823Z,27.20
2018-06-11T10:33:12.343Z,27.60
2018-06-11T10:34:17.854Z,26.90
2018-06-11T10:35:23.380Z,26.40
2018-06-11T10:36:28.885Z,25.80
2018-06-11T10:37:34.415Z,25.40
2018-06-11T10:38:39.931Z,24.30
2018-06-11T10:39:45.446Z,24.50
2018-06-11T10:40:50.965Z,22.80
2018-06-11T10:41:56.483Z,22.20
2018-06-11T10:43:02.011Z,22.50
2018-06-11T10:44:07.521Z,22.20
2018-06-11T10:45:13.047Z,22.20
2018-06-11T10:46:18.564Z,22.10
2018-06-11T10:47:24.079Z,21.70
2018-06-11T10:48:29.596Z,22.00
2018-06-11T10:49:35.119Z,23.00
2018-06-11T10:50:40.630Z,22.40
2018-06-11T10:51:46.175Z,21.00
2018-06-11T10:52:51.673Z,21.20
2018-06-11T10:53:57.187Z,19.70
2018-06-11T10:55:02.719Z,19.80
2018-06-11T10:56:08.240Z,20.90
2018-06-11T10:57:13.747Z,20.00
2018-06-11T10:58:19.321Z,19.10
2018-06-11T10:59:24.790Z,20.00
2018-06-11T11:00:30.306Z,20.00
2018-06-11T11:01:35.840Z,21.00
2018-06-11T11:02:41.343Z,20.70
2018-06-11T11:03:46.874Z,21.10
2018-06-11T11:04:52.394Z,20.90
2018-06-11T11:05:57.911Z,20.80
2018-06-11T11:07:03.422Z,22.00
2018-06-11T11:08:08.949Z,21.50
2018-06-11T11:09:14.460Z,23.10
2018-06-11T11:10:19.978Z,18.50
2018-06-11T11:11:25.499Z,18.30
2018-06-11T11:12:31.026Z,17.30
2018-06-11T11:13:36.535Z,19.20
2018-06-11T11:14:42.061Z,18.90
2018-06-11T11:15:47.580Z,20.10
2018-06-11T11:16:53.094Z,20.50
2018-06-11T11:17:58.620Z,18.50
2018-06-11T11:19:04.134Z,20.20
2018-06-11T11:20:09.663Z,19.00
2018-06-11T11:21:15.184Z,18.60
2018-06-11T11:22:20.693Z,18.60
2018-06-11T11:23:26.215Z,17.50
2018-06-11T11:24:31.742Z,17.70
2018-06-11T11:25:37.255Z,18.20
2018-06-11T11:26:42.768Z,18.10
2018-06-11T11:27:48.294Z,18.20
2018-06-11T11:28:53.822Z,18.90
2018-06-11T11:29:59.329Z,18.80
2018-06-11T11:31:04.855Z,18.90
2018-06-11T11:32:10.393Z,20.00
2018-06-11T11:33:15.895Z,20.00
2018-06-11T11:34:21.408Z,20.20
2018-06-11T11:35:26.960Z,20.40
2018-06-11T11:36:32.520Z,20.00
2018-06-11T11:37:37.979Z,21.10
2018-06-11T11:38:43.492Z,20.20
2018-06-11T11:39:49.061Z,20.60
2018-06-11T11:40:54.539Z,18.60
2018-06-11T11:42:00.057Z,18.60
2018-06-11T11:43:05.574Z,17.90
2018-06-11T11:44:11.085Z,16.90
2018-06-11T11:45:16.609Z,17.20
2018-06-11T11:46:22.126Z,17.10
2018-06-11T11:47:27.646Z,17.20
2018-06-11T11:48:33.168Z,16.90
2018-06-11T11:49:38.696Z,17.00
2018-06-11T11:50:44.212Z,16.40
2018-06-11T11:51:49.726Z,16.90
2018-06-11T11:52:55.250Z,17.90
2018-06-11T11:54:00.766Z,17.70
2018-06-11T11:55:06.296Z,16.00
2018-06-11T11:56:11.806Z,15.90
2018-06-11T11:57:17.335Z,16.90
2018-06-11T11:58:22.847Z,17.30
2018-06-11T11:59:28.373Z,16.00
2018-06-11T12:00:33.893Z,17.30
2018-06-11T12:01:39.418Z,15.90
2018-06-11T12:02:44.940Z,15.00
2018-06-11T12:03:50.445Z,14.30
2018-06-11T12:04:55.966Z,15.70
2018-06-11T12:06:01.489Z,15.50
2018-06-11T12:07:07.003Z,17.10
2018-06-11T12:08:12.532Z,17.50
2018-06-11T12:09:18.048Z,16.70
2018-06-11T12:10:23.576Z,16.30
2018-06-11T12:11:29.112Z,15.50
2018-06-11T12:12:34.622Z,13.60
2018-06-11T12:13:40.126Z,15.00
2018-06-11T12:14:45.680Z,16.60
2018-06-11T12:15:51.170Z,14.10
2018-06-11T12:16:56.692Z,14.90
2018-06-11T12:18:02.217Z,16.20
2018-06-11T12:19:07.762Z,14.90
2018-06-11T12:20:13.247Z,13.90
2018-06-11T12:21:18.769Z,13.50
2018-06-11T12:22:24.300Z,13.60
2018-06-11T12:23:29.810Z,14.50
2018-06-11T12:24:35.330Z,15.10
2018-06-11T12:25:40.857Z,15.60
2018-06-11T12:26:46.378Z,17.20
2018-06-11T12:27:51.890Z,16.90
2018-06-11T12:28:57.414Z,16.00
2018-06-11T12:30:02.943Z,16.00
2018-06-11T12:31:08.455Z,15.50
2018-06-11T12:32:13.972Z,14.40
2018-06-11T12:33:19.493Z,15.00
2018-06-11T12:34:25.020Z,15.00
2018-06-11T12:35:30.543Z,14.70
2018-06-11T12:36:36.053Z,15.00
2018-06-11T12:37:41.575Z,15.20
2018-06-11T12:38:47.102Z,16.40
2018-06-11T12:39:52.630Z,17.60
2018-06-11T12:40:58.143Z,15.10
2018-06-11T12:42:03.738Z,15.80
2018-06-11T12:43:09.254Z,14.70
2018-06-11T12:44:14.719Z,16.20
2018-06-11T12:45:20.220Z,15.30
2018-06-11T12:46:25.746Z,14.60
2018-06-11T12:47:31.273Z,14.40
2018-06-11T12:48:36.783Z,14.00
2018-06-11T12:49:42.303Z,16.10
2018-06-11T12:50:47.817Z,15.90
2018-06-11T12:51:53.345Z,16.10
2018-06-11T12:52:58.863Z,16.10
2018-06-11T12:54:04.380Z,15.70
2018-06-11T12:55:09.906Z,15.60
2018-06-11T12:56:15.457Z,15.70
2018-06-11T12:57:20.949Z,15.80
2018-06-11T12:58:26.468Z,14.90
2018-06-11T12:59:31.982Z,13.50
2018-06-11T13:00:37.505Z,13.10
2018-06-11T13:01:43.022Z,13.00
2018-06-11T13:02:48.543Z,13.10
2018-06-11T13:03:54.064Z,11.10
2018-06-11T13:04:59.581Z,14.20
2018-06-11T13:06:05.103Z,14.00
2018-06-11T13:07:10.623Z,14.60
2018-06-11T13:08:16.220Z,13.90
2018-06-11T13:09:21.667Z,11.80
2018-06-11T13:10:27.191Z,10.70
2018-06-11T13:11:32.705Z,10.40
2018-06-11T13:12:38.232Z,9.50
2018-06-11T13:13:43.747Z,9.40
2018-06-11T13:14:49.318Z,10.10
2018-06-11T13:15:54.786Z,10.20
2018-06-11T13:17:00.330Z,10.00
2018-06-11T13:18:05.829Z,10.80
2018-06-11T13:19:11.347Z,10.10
2018-06-11T13:20:16.879Z,9.00
2018-06-11T13:21:22.388Z,10.10
2018-06-11T13:22:27.904Z,10.90
2018-06-11T13:23:33.431Z,10.10
2018-06-11T13:24:38.962Z,9.60
2018-06-11T13:25:44.469Z,9.50
2018-06-11T13:26:49.991Z,9.80
2018-06-11T13:27:55.509Z,9.50
2018-06-11T13:29:01.030Z,9.30
2018-06-11T13:30:06.551Z,9.90
2018-06-11T13:31:12.070Z,8.10
2018-06-11T13:32:17.600Z,8.20
2018-06-11T13:33:23.111Z,9.20
2018-06-11T13:34:28.633Z,8.30
2018-06-11T13:35:34.158Z,7.10
2018-06-11T13:36:39.673Z,7.70
2018-06-11T13:37:45.195Z,7.40
2018-06-11T13:38:50.715Z,7.20
2018-06-11T13:39:56.234Z,6.80
2018-06-11T13:41:01.761Z,6.40
2018-06-11T13:42:07.282Z,6.50
2018-06-11T13:43:12.811Z,6.60
2018-06-11T13:44:18.329Z,6.70
2018-06-11T13:45:23.835Z,6.50
2018-06-11T13:46:29.356Z,6.00
2018-06-11T13:47:34.918Z,7.20
2018-06-11T13:48:40.394Z,6.40
2018-06-11T13:49:45.920Z,6.00
2018-06-11T13:50:51.446Z,5.10
2018-06-11T13:51:56.970Z,5.60
2018-06-11T13:53:02.483Z,5.90
2018-06-11T13:54:08.022Z,6.10
2018-06-11T13:55:13.525Z,6.00
2018-06-11T13:56:19.038Z,6.50
2018-06-11T13:57:24.574Z,6.50
2018-06-11T13:58:30.077Z,6.40
2018-06-11T13:59:35.596Z,5.80
2018-06-11T14:00:41.127Z,5.50
2018-06-11T14:01:46.638Z,6.20
2018-06-11T14:02:52.166Z,5.60
2018-06-11T14:03:57.694Z,5.20
2018-06-11T14:05:03.200Z,5.90
2018-06-11T14:06:08.721Z,5.40